sensor_id;sensor_type;location;lat;lon;timestamp;P1;durP1;ratioP1;P2;durP2;ratioP2
64601;SDS011;68371;42.630;23.192;2023-07-02T00:02:24;9.30;;;4.15;;
64601;SDS011;68371;42.630;23.192;2023-07-02T00:04:53;7.93;;;4.20;;
64601;SDS011;68371;42.630;23.192;2023-07-02T00:07:21;9.20;;;4.50;;
64601;SDS011;68371;42.630;23.192;2023-07-02T00:09:47;7.65;;;4.63;;
64601;SDS011;68371;42.630;23.192;2023-07-02T00:12:14;8.50;;;4.70;;
64601;SDS011;68371;42.630;23.192;2023-07-02T00:14:41;7.70;;;4.18;;
64601;SDS011;68371;42.630;23.192;2023-07-02T00:17:07;12.60;;;4.53;;
64601;SDS011;68371;42.630;23.192;2023-07-02T00:19:37;7.93;;;4.18;;
64601;SDS011;68371;42.630;23.192;2023-07-02T00:22:06;8.10;;;4.30;;
64601;SDS011;68371;42.630;23.192;2023-07-02T00:24:33;10.18;;;4.78;;
64601;SDS011;68371;42.630;23.192;2023-07-02T00:26:59;11.70;;;5.13;;
64601;SDS011;68371;42.630;23.192;2023-07-02T00:29:27;8.75;;;4.75;;
64601;SDS011;68371;42.630;23.192;2023-07-02T00:31:53;8.20;;;4.18;;
64601;SDS011;68371;42.630;23.192;2023-07-02T00:34:20;15.65;;;4.78;;
64601;SDS011;68371;42.630;23.192;2023-07-02T00:36:47;18.35;;;5.60;;
64601;SDS011;68371;42.630;23.192;2023-07-02T00:39:15;9.70;;;4.70;;
64601;SDS011;68371;42.630;23.192;2023-07-02T00:41:43;13.82;;;5.45;;
64601;SDS011;68371;42.630;23.192;2023-07-02T00:44:11;11.27;;;5.28;;
64601;SDS011;68371;42.630;23.192;2023-07-02T00:46:38;9.00;;;5.22;;
64601;SDS011;68371;42.630;23.192;2023-07-02T00:49:05;10.35;;;5.53;;
64601;SDS011;68371;42.630;23.192;2023-07-02T00:51:34;10.40;;;5.65;;
64601;SDS011;68371;42.630;23.192;2023-07-02T00:54:02;9.60;;;4.88;;
64601;SDS011;68371;42.630;23.192;2023-07-02T00:56:30;16.20;;;5.43;;
64601;SDS011;68371;42.630;23.192;2023-07-02T00:58:57;6.50;;;3.88;;
64601;SDS011;68371;42.630;23.192;2023-07-02T01:01:26;9.57;;;5.28;;
64601;SDS011;68371;42.630;23.192;2023-07-02T01:03:56;11.55;;;5.57;;
64601;SDS011;68371;42.630;23.192;2023-07-02T01:06:24;9.70;;;5.57;;
64601;SDS011;68371;42.630;23.192;2023-07-02T01:08:56;8.70;;;5.55;;
64601;SDS011;68371;42.630;23.192;2023-07-02T01:11:26;11.48;;;5.40;;
64601;SDS011;68371;42.630;23.192;2023-07-02T01:13:56;9.23;;;4.90;;
64601;SDS011;68371;42.630;23.192;2023-07-02T01:16:29;9.10;;;5.20;;
64601;SDS011;68371;42.630;23.192;2023-07-02T01:18:58;9.32;;;5.20;;
64601;SDS011;68371;42.630;23.192;2023-07-02T01:21:31;8.80;;;5.15;;
64601;SDS011;68371;42.630;23.192;2023-07-02T01:24:00;10.35;;;5.35;;
64601;SDS011;68371;42.630;23.192;2023-07-02T01:26:28;9.35;;;5.22;;
64601;SDS011;68371;42.630;23.192;2023-07-02T01:28:58;10.48;;;5.43;;
64601;SDS011;68371;42.630;23.192;2023-07-02T01:31:25;11.30;;;5.82;;
64601;SDS011;68371;42.630;23.192;2023-07-02T01:33:52;13.65;;;5.85;;
64601;SDS011;68371;42.630;23.192;2023-07-02T01:36:19;10.48;;;6.20;;
64601;SDS011;68371;42.630;23.192;2023-07-02T01:38:47;11.02;;;5.53;;
64601;SDS011;68371;42.630;23.192;2023-07-02T01:41:13;10.07;;;5.40;;
64601;SDS011;68371;42.630;23.192;2023-07-02T01:43:40;10.40;;;5.47;;
64601;SDS011;68371;42.630;23.192;2023-07-02T01:46:06;11.98;;;5.05;;
64601;SDS011;68371;42.630;23.192;2023-07-02T01:48:33;13.10;;;5.70;;
64601;SDS011;68371;42.630;23.192;2023-07-02T01:51:00;9.30;;;4.85;;
64601;SDS011;68371;42.630;23.192;2023-07-02T01:53:28;9.57;;;5.18;;
64601;SDS011;68371;42.630;23.192;2023-07-02T01:55:56;9.00;;;4.60;;
64601;SDS011;68371;42.630;23.192;2023-07-02T01:58:23;10.35;;;3.90;;
64601;SDS011;68371;42.630;23.192;2023-07-02T02:00:49;7.97;;;3.42;;
64601;SDS011;68371;42.630;23.192;2023-07-02T02:03:16;9.27;;;3.80;;
64601;SDS011;68371;42.630;23.192;2023-07-02T02:05:43;6.97;;;3.53;;
64601;SDS011;68371;42.630;23.192;2023-07-02T02:08:09;7.90;;;3.28;;
64601;SDS011;68371;42.630;23.192;2023-07-02T02:10:36;6.22;;;3.63;;
64601;SDS011;68371;42.630;23.192;2023-07-02T02:13:04;6.03;;;3.30;;
64601;SDS011;68371;42.630;23.192;2023-07-02T02:15:31;7.75;;;3.05;;
64601;SDS011;68371;42.630;23.192;2023-07-02T02:17:58;6.57;;;3.72;;
64601;SDS011;68371;42.630;23.192;2023-07-02T02:20:24;4.90;;;2.72;;
64601;SDS011;68371;42.630;23.192;2023-07-02T02:22:51;5.07;;;2.90;;
64601;SDS011;68371;42.630;23.192;2023-07-02T02:25:18;4.20;;;2.42;;
64601;SDS011;68371;42.630;23.192;2023-07-02T02:27:45;4.82;;;1.90;;
64601;SDS011;68371;42.630;23.192;2023-07-02T02:30:13;4.70;;;1.83;;
64601;SDS011;68371;42.630;23.192;2023-07-02T02:32:39;3.38;;;2.05;;
64601;SDS011;68371;42.630;23.192;2023-07-02T02:35:07;3.70;;;1.83;;
64601;SDS011;68371;42.630;23.192;2023-07-02T02:37:34;3.95;;;2.05;;
64601;SDS011;68371;42.630;23.192;2023-07-02T02:40:02;3.97;;;1.70;;
64601;SDS011;68371;42.630;23.192;2023-07-02T02:42:30;3.88;;;1.90;;
64601;SDS011;68371;42.630;23.192;2023-07-02T02:44:57;3.28;;;1.70;;
64601;SDS011;68371;42.630;23.192;2023-07-02T02:47:25;3.78;;;1.83;;
64601;SDS011;68371;42.630;23.192;2023-07-02T02:49:52;4.47;;;1.80;;
64601;SDS011;68371;42.630;23.192;2023-07-02T02:52:18;2.67;;;1.35;;
64601;SDS011;68371;42.630;23.192;2023-07-02T02:54:45;3.22;;;1.83;;
64601;SDS011;68371;42.630;23.192;2023-07-02T02:57:15;3.50;;;1.70;;
64601;SDS011;68371;42.630;23.192;2023-07-02T02:59:42;4.05;;;1.95;;
64601;SDS011;68371;42.630;23.192;2023-07-02T03:02:08;5.45;;;2.65;;
64601;SDS011;68371;42.630;23.192;2023-07-02T03:04:36;9.98;;;4.03;;
64601;SDS011;68371;42.630;23.192;2023-07-02T03:09:36;7.32;;;3.90;;
64601;SDS011;68371;42.630;23.192;2023-07-02T03:12:02;5.93;;;3.72;;
64601;SDS011;68371;42.630;23.192;2023-07-02T03:14:30;7.93;;;3.97;;
64601;SDS011;68371;42.630;23.192;2023-07-02T03:16:57;14.63;;;3.95;;
64601;SDS011;68371;42.630;23.192;2023-07-02T03:19:23;12.45;;;3.70;;
64601;SDS011;68371;42.630;23.192;2023-07-02T03:21:50;5.80;;;3.30;;
64601;SDS011;68371;42.630;23.192;2023-07-02T03:24:17;6.05;;;3.70;;
64601;SDS011;68371;42.630;23.192;2023-07-02T03:26:45;6.85;;;3.13;;
64601;SDS011;68371;42.630;23.192;2023-07-02T03:29:12;7.15;;;2.53;;
64601;SDS011;68371;42.630;23.192;2023-07-02T03:31:39;5.10;;;2.05;;
64601;SDS011;68371;42.630;23.192;2023-07-02T03:34:06;4.55;;;2.45;;
64601;SDS011;68371;42.630;23.192;2023-07-02T03:36:35;6.80;;;2.50;;
64601;SDS011;68371;42.630;23.192;2023-07-02T03:39:02;5.45;;;2.38;;
64601;SDS011;68371;42.630;23.192;2023-07-02T03:41:29;4.15;;;2.63;;
64601;SDS011;68371;42.630;23.192;2023-07-02T03:43:57;5.22;;;2.67;;
64601;SDS011;68371;42.630;23.192;2023-07-02T03:46:24;4.88;;;2.50;;
64601;SDS011;68371;42.630;23.192;2023-07-02T03:48:51;4.47;;;2.30;;
64601;SDS011;68371;42.630;23.192;2023-07-02T03:51:17;7.53;;;3.15;;
64601;SDS011;68371;42.630;23.192;2023-07-02T03:53:44;6.07;;;2.67;;
64601;SDS011;68371;42.630;23.192;2023-07-02T03:56:11;5.55;;;2.10;;
64601;SDS011;68371;42.630;23.192;2023-07-02T03:58:39;5.18;;;2.10;;
64601;SDS011;68371;42.630;23.192;2023-07-02T04:01:08;3.85;;;1.77;;
64601;SDS011;68371;42.630;23.192;2023-07-02T04:03:35;5.63;;;2.55;;
64601;SDS011;68371;42.630;23.192;2023-07-02T04:06:02;5.97;;;2.28;;
64601;SDS011;68371;42.630;23.192;2023-07-02T04:08:30;4.10;;;2.40;;
64601;SDS011;68371;42.630;23.192;2023-07-02T04:10:57;3.88;;;2.20;;
64601;SDS011;68371;42.630;23.192;2023-07-02T04:13:24;4.35;;;2.60;;
64601;SDS011;68371;42.630;23.192;2023-07-02T04:15:51;4.35;;;2.42;;
64601;SDS011;68371;42.630;23.192;2023-07-02T04:18:19;4.35;;;2.42;;
64601;SDS011;68371;42.630;23.192;2023-07-02T04:20:45;5.20;;;2.22;;
64601;SDS011;68371;42.630;23.192;2023-07-02T04:23:12;5.65;;;2.60;;
64601;SDS011;68371;42.630;23.192;2023-07-02T04:25:39;5.75;;;2.53;;
64601;SDS011;68371;42.630;23.192;2023-07-02T04:28:06;7.32;;;2.47;;
64601;SDS011;68371;42.630;23.192;2023-07-02T04:30:33;5.57;;;2.38;;
64601;SDS011;68371;42.630;23.192;2023-07-02T04:33:00;5.53;;;2.40;;
64601;SDS011;68371;42.630;23.192;2023-07-02T04:35:28;4.10;;;2.55;;
64601;SDS011;68371;42.630;23.192;2023-07-02T04:37:55;6.07;;;2.63;;
64601;SDS011;68371;42.630;23.192;2023-07-02T04:40:22;3.90;;;2.08;;
64601;SDS011;68371;42.630;23.192;2023-07-02T04:42:49;6.70;;;2.75;;
64601;SDS011;68371;42.630;23.192;2023-07-02T04:45:22;3.95;;;2.50;;
64601;SDS011;68371;42.630;23.192;2023-07-02T04:47:50;3.88;;;2.22;;
64601;SDS011;68371;42.630;23.192;2023-07-02T04:50:17;3.78;;;2.30;;
64601;SDS011;68371;42.630;23.192;2023-07-02T04:52:45;4.82;;;2.17;;
64601;SDS011;68371;42.630;23.192;2023-07-02T04:55:12;3.35;;;1.85;;
64601;SDS011;68371;42.630;23.192;2023-07-02T04:57:38;4.95;;;2.53;;
64601;SDS011;68371;42.630;23.192;2023-07-02T05:00:06;4.95;;;2.53;;
64601;SDS011;68371;42.630;23.192;2023-07-02T05:02:34;3.38;;;2.15;;
64601;SDS011;68371;42.630;23.192;2023-07-02T05:05:00;5.00;;;2.42;;
64601;SDS011;68371;42.630;23.192;2023-07-02T05:07:27;4.93;;;2.42;;
64601;SDS011;68371;42.630;23.192;2023-07-02T05:09:55;4.03;;;2.30;;
64601;SDS011;68371;42.630;23.192;2023-07-02T05:12:22;5.25;;;2.30;;
64601;SDS011;68371;42.630;23.192;2023-07-02T05:14:49;7.75;;;3.67;;
64601;SDS011;68371;42.630;23.192;2023-07-02T05:17:16;8.10;;;3.63;;
64601;SDS011;68371;42.630;23.192;2023-07-02T05:19:43;12.77;;;3.40;;
64601;SDS011;68371;42.630;23.192;2023-07-02T05:22:10;7.35;;;3.75;;
64601;SDS011;68371;42.630;23.192;2023-07-02T05:24:36;4.50;;;3.03;;
64601;SDS011;68371;42.630;23.192;2023-07-02T05:27:05;5.63;;;3.03;;
64601;SDS011;68371;42.630;23.192;2023-07-02T05:29:31;7.85;;;3.67;;
64601;SDS011;68371;42.630;23.192;2023-07-02T05:31:58;7.72;;;3.75;;
64601;SDS011;68371;42.630;23.192;2023-07-02T05:34:25;9.57;;;4.20;;
64601;SDS011;68371;42.630;23.192;2023-07-02T05:36:51;10.98;;;5.70;;
64601;SDS011;68371;42.630;23.192;2023-07-02T05:39:18;8.73;;;5.20;;
64601;SDS011;68371;42.630;23.192;2023-07-02T05:41:46;10.30;;;5.50;;
64601;SDS011;68371;42.630;23.192;2023-07-02T05:44:15;13.43;;;5.20;;
64601;SDS011;68371;42.630;23.192;2023-07-02T05:46:42;8.88;;;5.43;;
64601;SDS011;68371;42.630;23.192;2023-07-02T05:49:09;7.35;;;4.40;;
64601;SDS011;68371;42.630;23.192;2023-07-02T05:51:36;10.73;;;4.95;;
64601;SDS011;68371;42.630;23.192;2023-07-02T05:54:02;12.13;;;5.13;;
64601;SDS011;68371;42.630;23.192;2023-07-02T05:56:29;9.98;;;4.22;;
64601;SDS011;68371;42.630;23.192;2023-07-02T05:58:56;14.88;;;9.05;;
64601;SDS011;68371;42.630;23.192;2023-07-02T06:01:24;28.10;;;12.75;;
64601;SDS011;68371;42.630;23.192;2023-07-02T06:03:51;17.27;;;9.98;;
64601;SDS011;68371;42.630;23.192;2023-07-02T06:06:17;13.77;;;7.03;;
64601;SDS011;68371;42.630;23.192;2023-07-02T06:08:44;5.32;;;3.10;;
64601;SDS011;68371;42.630;23.192;2023-07-02T06:11:12;6.20;;;3.05;;
64601;SDS011;68371;42.630;23.192;2023-07-02T06:13:39;6.18;;;3.00;;
64601;SDS011;68371;42.630;23.192;2023-07-02T06:16:05;6.13;;;2.75;;
64601;SDS011;68371;42.630;23.192;2023-07-02T06:18:34;8.77;;;3.08;;
64601;SDS011;68371;42.630;23.192;2023-07-02T06:21:00;7.88;;;3.10;;
64601;SDS011;68371;42.630;23.192;2023-07-02T06:23:27;6.25;;;3.40;;
64601;SDS011;68371;42.630;23.192;2023-07-02T06:25:55;6.57;;;3.17;;
64601;SDS011;68371;42.630;23.192;2023-07-02T06:28:24;11.45;;;3.20;;
64601;SDS011;68371;42.630;23.192;2023-07-02T06:30:51;9.63;;;2.58;;
64601;SDS011;68371;42.630;23.192;2023-07-02T06:33:17;5.78;;;3.10;;
64601;SDS011;68371;42.630;23.192;2023-07-02T06:35:46;6.10;;;2.72;;
64601;SDS011;68371;42.630;23.192;2023-07-02T06:38:12;8.63;;;2.72;;
64601;SDS011;68371;42.630;23.192;2023-07-02T06:40:40;6.30;;;3.15;;
64601;SDS011;68371;42.630;23.192;2023-07-02T06:43:06;4.63;;;2.83;;
64601;SDS011;68371;42.630;23.192;2023-07-02T06:45:33;4.28;;;2.70;;
64601;SDS011;68371;42.630;23.192;2023-07-02T06:48:00;4.78;;;2.83;;
64601;SDS011;68371;42.630;23.192;2023-07-02T06:50:26;6.00;;;2.85;;
64601;SDS011;68371;42.630;23.192;2023-07-02T06:52:55;6.75;;;3.10;;
64601;SDS011;68371;42.630;23.192;2023-07-02T06:55:21;4.43;;;2.60;;
64601;SDS011;68371;42.630;23.192;2023-07-02T06:57:49;5.68;;;2.70;;
64601;SDS011;68371;42.630;23.192;2023-07-02T07:00:15;4.88;;;2.80;;
64601;SDS011;68371;42.630;23.192;2023-07-02T07:02:42;5.45;;;2.90;;
64601;SDS011;68371;42.630;23.192;2023-07-02T07:05:09;5.22;;;2.38;;
64601;SDS011;68371;42.630;23.192;2023-07-02T07:07:35;4.70;;;2.53;;
64601;SDS011;68371;42.630;23.192;2023-07-02T07:10:04;4.60;;;2.60;;
64601;SDS011;68371;42.630;23.192;2023-07-02T07:12:32;4.05;;;2.30;;
64601;SDS011;68371;42.630;23.192;2023-07-02T07:14:58;4.05;;;2.22;;
64601;SDS011;68371;42.630;23.192;2023-07-02T07:17:25;3.88;;;2.40;;
64601;SDS011;68371;42.630;23.192;2023-07-02T07:19:52;9.13;;;2.60;;
64601;SDS011;68371;42.630;23.192;2023-07-02T07:22:18;3.83;;;2.50;;
64601;SDS011;68371;42.630;23.192;2023-07-02T07:24:45;4.28;;;2.35;;
64601;SDS011;68371;42.630;23.192;2023-07-02T07:27:14;5.25;;;2.40;;
64601;SDS011;68371;42.630;23.192;2023-07-02T07:29:42;6.10;;;2.90;;
64601;SDS011;68371;42.630;23.192;2023-07-02T07:32:08;4.85;;;2.60;;
64601;SDS011;68371;42.630;23.192;2023-07-02T07:34:35;4.53;;;2.30;;
64601;SDS011;68371;42.630;23.192;2023-07-02T07:37:02;4.07;;;2.30;;
64601;SDS011;68371;42.630;23.192;2023-07-02T07:39:29;3.75;;;2.50;;
64601;SDS011;68371;42.630;23.192;2023-07-02T07:41:55;6.63;;;2.58;;
64601;SDS011;68371;42.630;23.192;2023-07-02T07:44:23;3.75;;;2.40;;
64601;SDS011;68371;42.630;23.192;2023-07-02T07:46:53;3.13;;;2.10;;
64601;SDS011;68371;42.630;23.192;2023-07-02T07:49:20;4.60;;;2.72;;
64601;SDS011;68371;42.630;23.192;2023-07-02T07:51:48;4.70;;;2.17;;
64601;SDS011;68371;42.630;23.192;2023-07-02T07:54:15;4.53;;;2.42;;
64601;SDS011;68371;42.630;23.192;2023-07-02T07:56:41;3.28;;;2.30;;
64601;SDS011;68371;42.630;23.192;2023-07-02T07:59:08;9.43;;;2.70;;
64601;SDS011;68371;42.630;23.192;2023-07-02T08:01:37;4.20;;;2.67;;
64601;SDS011;68371;42.630;23.192;2023-07-02T08:04:04;8.25;;;3.40;;
64601;SDS011;68371;42.630;23.192;2023-07-02T08:06:31;4.05;;;2.20;;
64601;SDS011;68371;42.630;23.192;2023-07-02T08:08:57;4.75;;;2.67;;
64601;SDS011;68371;42.630;23.192;2023-07-02T08:11:24;3.60;;;1.95;;
64601;SDS011;68371;42.630;23.192;2023-07-02T08:13:52;4.90;;;2.58;;
64601;SDS011;68371;42.630;23.192;2023-07-02T08:16:19;4.93;;;2.10;;
64601;SDS011;68371;42.630;23.192;2023-07-02T08:18:47;6.43;;;2.40;;
64601;SDS011;68371;42.630;23.192;2023-07-02T08:21:15;6.75;;;2.55;;
64601;SDS011;68371;42.630;23.192;2023-07-02T08:23:42;3.83;;;2.47;;
64601;SDS011;68371;42.630;23.192;2023-07-02T08:26:08;4.20;;;1.77;;
64601;SDS011;68371;42.630;23.192;2023-07-02T08:28:35;6.68;;;2.35;;
64601;SDS011;68371;42.630;23.192;2023-07-02T08:31:03;6.28;;;2.47;;
64601;SDS011;68371;42.630;23.192;2023-07-02T08:33:30;4.75;;;2.28;;
64601;SDS011;68371;42.630;23.192;2023-07-02T08:35:58;4.00;;;2.30;;
64601;SDS011;68371;42.630;23.192;2023-07-02T08:38:25;6.03;;;2.38;;
64601;SDS011;68371;42.630;23.192;2023-07-02T08:40:52;4.32;;;2.20;;
64601;SDS011;68371;42.630;23.192;2023-07-02T08:43:19;4.13;;;2.13;;
64601;SDS011;68371;42.630;23.192;2023-07-02T08:45:47;10.45;;;2.40;;
64601;SDS011;68371;42.630;23.192;2023-07-02T08:48:14;5.22;;;2.47;;
64601;SDS011;68371;42.630;23.192;2023-07-02T08:50:42;5.78;;;2.22;;
64601;SDS011;68371;42.630;23.192;2023-07-02T08:53:10;5.05;;;2.53;;
64601;SDS011;68371;42.630;23.192;2023-07-02T08:55:36;3.92;;;2.13;;
64601;SDS011;68371;42.630;23.192;2023-07-02T08:58:03;3.78;;;2.17;;
64601;SDS011;68371;42.630;23.192;2023-07-02T09:00:30;6.63;;;2.25;;
64601;SDS011;68371;42.630;23.192;2023-07-02T09:03:10;6.28;;;2.70;;
64601;SDS011;68371;42.630;23.192;2023-07-02T09:05:46;5.47;;;2.15;;
64601;SDS011;68371;42.630;23.192;2023-07-02T09:08:23;8.70;;;2.28;;
64601;SDS011;68371;42.630;23.192;2023-07-02T09:10:50;4.78;;;2.22;;
64601;SDS011;68371;42.630;23.192;2023-07-02T09:13:18;2.88;;;1.75;;
64601;SDS011;68371;42.630;23.192;2023-07-02T09:15:45;3.63;;;2.05;;
64601;SDS011;68371;42.630;23.192;2023-07-02T09:18:16;3.55;;;2.10;;
64601;SDS011;68371;42.630;23.192;2023-07-02T09:20:43;3.85;;;2.00;;
64601;SDS011;68371;42.630;23.192;2023-07-02T09:23:10;8.10;;;2.20;;
64601;SDS011;68371;42.630;23.192;2023-07-02T09:25:38;3.78;;;1.73;;
64601;SDS011;68371;42.630;23.192;2023-07-02T09:28:13;5.00;;;2.17;;
64601;SDS011;68371;42.630;23.192;2023-07-02T09:30:48;2.90;;;1.80;;
64601;SDS011;68371;42.630;23.192;2023-07-02T09:33:15;4.55;;;2.25;;
64601;SDS011;68371;42.630;23.192;2023-07-02T09:35:42;3.15;;;2.00;;
64601;SDS011;68371;42.630;23.192;2023-07-02T09:38:09;5.70;;;2.00;;
64601;SDS011;68371;42.630;23.192;2023-07-02T09:40:40;9.02;;;1.88;;
64601;SDS011;68371;42.630;23.192;2023-07-02T09:43:11;5.93;;;1.80;;
64601;SDS011;68371;42.630;23.192;2023-07-02T09:45:40;8.82;;;1.95;;
64601;SDS011;68371;42.630;23.192;2023-07-02T09:48:09;3.28;;;1.90;;
64601;SDS011;68371;42.630;23.192;2023-07-02T09:50:39;6.60;;;4.33;;
64601;SDS011;68371;42.630;23.192;2023-07-02T09:53:06;7.65;;;2.40;;
64601;SDS011;68371;42.630;23.192;2023-07-02T09:55:33;2.90;;;1.85;;
64601;SDS011;68371;42.630;23.192;2023-07-02T09:58:02;7.80;;;2.08;;
64601;SDS011;68371;42.630;23.192;2023-07-02T10:00:28;3.75;;;2.13;;
64601;SDS011;68371;42.630;23.192;2023-07-02T10:02:55;11.55;;;2.08;;
64601;SDS011;68371;42.630;23.192;2023-07-02T10:05:26;3.35;;;2.03;;
64601;SDS011;68371;42.630;23.192;2023-07-02T10:42:04;4.68;;;2.88;;
64601;SDS011;68371;42.630;23.192;2023-07-02T10:44:32;5.95;;;3.17;;
64601;SDS011;68371;42.630;23.192;2023-07-02T10:46:59;8.30;;;3.13;;
64601;SDS011;68371;42.630;23.192;2023-07-02T10:49:30;5.40;;;2.90;;
64601;SDS011;68371;42.630;23.192;2023-07-02T10:51:58;5.03;;;2.90;;
64601;SDS011;68371;42.630;23.192;2023-07-02T10:54:25;4.82;;;3.40;;
64601;SDS011;68371;42.630;23.192;2023-07-02T10:56:56;5.20;;;3.28;;
64601;SDS011;68371;42.630;23.192;2023-07-02T10:59:25;11.32;;;3.50;;
64601;SDS011;68371;42.630;23.192;2023-07-02T11:01:52;4.38;;;3.00;;
64601;SDS011;68371;42.630;23.192;2023-07-02T11:04:20;9.15;;;3.55;;
64601;SDS011;68371;42.630;23.192;2023-07-02T11:06:48;5.82;;;3.55;;
64601;SDS011;68371;42.630;23.192;2023-07-02T11:09:15;10.85;;;3.60;;
64601;SDS011;68371;42.630;23.192;2023-07-02T11:11:49;14.65;;;3.65;;
64601;SDS011;68371;42.630;23.192;2023-07-02T11:14:27;5.25;;;3.55;;
64601;SDS011;68371;42.630;23.192;2023-07-02T11:16:55;5.40;;;3.60;;
64601;SDS011;68371;42.630;23.192;2023-07-02T11:19:23;6.35;;;3.70;;
64601;SDS011;68371;42.630;23.192;2023-07-02T11:21:50;8.02;;;3.70;;
64601;SDS011;68371;42.630;23.192;2023-07-02T11:24:26;10.05;;;3.72;;
64601;SDS011;68371;42.630;23.192;2023-07-02T11:26:54;6.72;;;3.90;;
64601;SDS011;68371;42.630;23.192;2023-07-02T11:29:21;6.57;;;3.80;;
64601;SDS011;68371;42.630;23.192;2023-07-02T11:31:49;5.20;;;3.70;;
64601;SDS011;68371;42.630;23.192;2023-07-02T11:34:16;6.65;;;3.70;;
64601;SDS011;68371;42.630;23.192;2023-07-02T11:36:45;7.75;;;4.15;;
64601;SDS011;68371;42.630;23.192;2023-07-02T11:39:12;4.72;;;3.60;;
64601;SDS011;68371;42.630;23.192;2023-07-02T11:41:40;7.13;;;4.53;;
64601;SDS011;68371;42.630;23.192;2023-07-02T11:44:09;6.20;;;3.47;;
64601;SDS011;68371;42.630;23.192;2023-07-02T11:46:35;6.38;;;3.33;;
64601;SDS011;68371;42.630;23.192;2023-07-02T11:49:04;5.35;;;3.00;;
64601;SDS011;68371;42.630;23.192;2023-07-02T11:51:33;3.90;;;2.47;;
64601;SDS011;68371;42.630;23.192;2023-07-02T11:53:59;14.43;;;3.30;;
64601;SDS011;68371;42.630;23.192;2023-07-02T11:56:26;4.78;;;2.60;;
64601;SDS011;68371;42.630;23.192;2023-07-02T11:58:53;5.55;;;2.95;;
64601;SDS011;68371;42.630;23.192;2023-07-02T12:01:20;4.88;;;2.78;;
64601;SDS011;68371;42.630;23.192;2023-07-02T12:03:47;13.38;;;3.75;;
64601;SDS011;68371;42.630;23.192;2023-07-02T12:06:15;7.78;;;3.13;;
64601;SDS011;68371;42.630;23.192;2023-07-02T12:08:41;6.63;;;3.45;;
64601;SDS011;68371;42.630;23.192;2023-07-02T12:11:08;7.30;;;3.42;;
64601;SDS011;68371;42.630;23.192;2023-07-02T12:13:35;6.60;;;3.60;;
64601;SDS011;68371;42.630;23.192;2023-07-02T12:16:02;5.10;;;3.53;;
64601;SDS011;68371;42.630;23.192;2023-07-02T12:18:29;6.97;;;3.72;;
64601;SDS011;68371;42.630;23.192;2023-07-02T12:20:56;4.47;;;3.20;;
64601;SDS011;68371;42.630;23.192;2023-07-02T12:23:24;6.10;;;3.60;;
64601;SDS011;68371;42.630;23.192;2023-07-02T12:25:51;6.95;;;3.70;;
64601;SDS011;68371;42.630;23.192;2023-07-02T12:28:18;6.82;;;3.75;;
64601;SDS011;68371;42.630;23.192;2023-07-02T12:30:44;5.25;;;3.30;;
64601;SDS011;68371;42.630;23.192;2023-07-02T12:33:11;5.47;;;3.60;;
64601;SDS011;68371;42.630;23.192;2023-07-02T12:35:38;6.75;;;3.90;;
64601;SDS011;68371;42.630;23.192;2023-07-02T12:38:05;4.63;;;3.70;;
64601;SDS011;68371;42.630;23.192;2023-07-02T12:40:34;6.90;;;3.75;;
64601;SDS011;68371;42.630;23.192;2023-07-02T12:43:02;8.75;;;3.80;;
64601;SDS011;68371;42.630;23.192;2023-07-02T12:45:29;5.32;;;3.70;;
64601;SDS011;68371;42.630;23.192;2023-07-02T12:47:56;7.88;;;3.63;;
64601;SDS011;68371;42.630;23.192;2023-07-02T12:50:23;5.30;;;3.78;;
64601;SDS011;68371;42.630;23.192;2023-07-02T12:52:50;6.18;;;3.63;;
64601;SDS011;68371;42.630;23.192;2023-07-02T12:55:16;8.65;;;4.18;;
64601;SDS011;68371;42.630;23.192;2023-07-02T12:57:44;9.40;;;3.83;;
64601;SDS011;68371;42.630;23.192;2023-07-02T13:00:11;6.57;;;3.85;;
64601;SDS011;68371;42.630;23.192;2023-07-02T13:02:39;5.00;;;3.80;;
64601;SDS011;68371;42.630;23.192;2023-07-02T13:05:06;5.32;;;3.88;;
64601;SDS011;68371;42.630;23.192;2023-07-02T13:07:33;5.75;;;4.00;;
64601;SDS011;68371;42.630;23.192;2023-07-02T13:10:00;5.78;;;3.90;;
64601;SDS011;68371;42.630;23.192;2023-07-02T13:12:26;7.80;;;3.90;;
64601;SDS011;68371;42.630;23.192;2023-07-02T13:14:54;5.85;;;4.05;;
64601;SDS011;68371;42.630;23.192;2023-07-02T13:17:21;6.13;;;4.50;;
64601;SDS011;68371;42.630;23.192;2023-07-02T13:19:48;5.50;;;4.00;;
64601;SDS011;68371;42.630;23.192;2023-07-02T13:22:15;11.90;;;4.72;;
64601;SDS011;68371;42.630;23.192;2023-07-02T13:24:41;15.45;;;4.60;;
64601;SDS011;68371;42.630;23.192;2023-07-02T13:27:11;8.18;;;4.70;;
64601;SDS011;68371;42.630;23.192;2023-07-02T13:29:41;6.88;;;4.55;;
64601;SDS011;68371;42.630;23.192;2023-07-02T13:32:09;5.57;;;4.18;;
64601;SDS011;68371;42.630;23.192;2023-07-02T13:34:36;6.30;;;4.18;;
64601;SDS011;68371;42.630;23.192;2023-07-02T13:37:03;15.32;;;4.80;;
64601;SDS011;68371;42.630;23.192;2023-07-02T13:39:31;7.32;;;4.25;;
64601;SDS011;68371;42.630;23.192;2023-07-02T13:41:58;5.97;;;4.18;;
64601;SDS011;68371;42.630;23.192;2023-07-02T13:44:24;9.85;;;4.43;;
64601;SDS011;68371;42.630;23.192;2023-07-02T13:46:51;12.38;;;4.55;;
64601;SDS011;68371;42.630;23.192;2023-07-02T13:49:20;7.03;;;4.75;;
64601;SDS011;68371;42.630;23.192;2023-07-02T13:51:47;12.75;;;4.80;;
64601;SDS011;68371;42.630;23.192;2023-07-02T13:54:15;7.80;;;4.63;;
64601;SDS011;68371;42.630;23.192;2023-07-02T13:56:43;11.77;;;4.88;;
64601;SDS011;68371;42.630;23.192;2023-07-02T13:59:12;10.15;;;4.80;;
64601;SDS011;68371;42.630;23.192;2023-07-02T14:01:39;9.02;;;4.95;;
64601;SDS011;68371;42.630;23.192;2023-07-02T14:04:06;7.45;;;4.78;;
64601;SDS011;68371;42.630;23.192;2023-07-02T14:06:32;9.55;;;5.25;;
64601;SDS011;68371;42.630;23.192;2023-07-02T14:08:59;9.70;;;4.45;;
64601;SDS011;68371;42.630;23.192;2023-07-02T14:11:26;8.10;;;4.93;;
64601;SDS011;68371;42.630;23.192;2023-07-02T14:13:54;8.57;;;4.82;;
64601;SDS011;68371;42.630;23.192;2023-07-02T14:16:22;10.70;;;4.90;;
64601;SDS011;68371;42.630;23.192;2023-07-02T14:18:49;8.25;;;5.05;;
64601;SDS011;68371;42.630;23.192;2023-07-02T14:21:15;7.90;;;4.72;;
64601;SDS011;68371;42.630;23.192;2023-07-02T14:23:42;9.25;;;5.22;;
64601;SDS011;68371;42.630;23.192;2023-07-02T14:26:10;12.50;;;5.20;;
64601;SDS011;68371;42.630;23.192;2023-07-02T14:28:37;7.65;;;5.07;;
64601;SDS011;68371;42.630;23.192;2023-07-02T14:31:05;9.30;;;5.63;;
64601;SDS011;68371;42.630;23.192;2023-07-02T14:33:34;7.93;;;5.47;;
64601;SDS011;68371;42.630;23.192;2023-07-02T14:36:03;9.52;;;5.40;;
64601;SDS011;68371;42.630;23.192;2023-07-02T14:38:31;7.75;;;5.43;;
64601;SDS011;68371;42.630;23.192;2023-07-02T14:40:58;8.18;;;5.22;;
64601;SDS011;68371;42.630;23.192;2023-07-02T14:43:26;6.85;;;4.95;;
64601;SDS011;68371;42.630;23.192;2023-07-02T14:45:54;8.50;;;5.47;;
64601;SDS011;68371;42.630;23.192;2023-07-02T14:48:23;7.20;;;4.90;;
64601;SDS011;68371;42.630;23.192;2023-07-02T14:50:51;9.20;;;5.22;;
64601;SDS011;68371;42.630;23.192;2023-07-02T14:53:20;7.85;;;4.50;;
64601;SDS011;68371;42.630;23.192;2023-07-02T14:55:47;7.97;;;4.50;;
64601;SDS011;68371;42.630;23.192;2023-07-02T14:58:15;7.55;;;4.20;;
64601;SDS011;68371;42.630;23.192;2023-07-02T15:00:43;6.65;;;4.22;;
64601;SDS011;68371;42.630;23.192;2023-07-02T15:03:11;8.02;;;4.53;;
64601;SDS011;68371;42.630;23.192;2023-07-02T15:05:38;8.30;;;5.03;;
64601;SDS011;68371;42.630;23.192;2023-07-02T15:08:07;9.77;;;4.55;;
64601;SDS011;68371;42.630;23.192;2023-07-02T15:10:34;7.13;;;4.72;;
64601;SDS011;68371;42.630;23.192;2023-07-02T15:13:04;8.32;;;5.07;;